createdAt,value
2023-04-12T00:01:20.727Z,7.67
2023-04-12T00:03:54.974Z,7.51
2023-04-12T00:06:32.532Z,7.51
2023-04-12T00:09:01.011Z,7.68
2023-04-12T00:11:29.093Z,7.53
2023-04-12T00:13:56.693Z,7.61
2023-04-12T00:16:24.696Z,7.66
2023-04-12T00:18:52.159Z,7.90
2023-04-12T00:21:19.783Z,7.87
2023-04-12T00:23:47.749Z,7.97
2023-04-12T00:26:15.620Z,8.17
2023-04-12T00:28:43.260Z,8.12
2023-04-12T00:31:12.804Z,7.78
2023-04-12T00:33:40.398Z,7.62
2023-04-12T00:36:08.449Z,7.36
2023-04-12T00:38:36.615Z,7.13
2023-04-12T00:41:04.620Z,7.43
2023-04-12T00:43:32.016Z,7.33
2023-04-12T00:45:59.753Z,7.25
2023-04-12T00:48:27.530Z,7.33
2023-04-12T00:50:57.937Z,7.16
2023-04-12T00:53:25.718Z,6.95
2023-04-12T00:55:54.586Z,7.19
2023-04-12T00:58:24.360Z,7.20
2023-04-12T01:00:53.076Z,7.36
2023-04-12T01:03:24.420Z,7.47
2023-04-12T01:06:14.312Z,7.35
2023-04-12T01:08:55.216Z,6.99
2023-04-12T01:11:26.867Z,7.30
2023-04-12T01:14:07.326Z,7.32
2023-04-12T01:16:41.272Z,7.19
2023-04-12T01:19:24.024Z,6.95
2023-04-12T01:22:16.619Z,7.14
2023-04-12T01:24:55.975Z,6.88
2023-04-12T01:27:45.190Z,7.19
2023-04-12T01:30:14.543Z,7.00
2023-04-12T01:32:44.584Z,7.07
2023-04-12T01:35:13.099Z,7.11
2023-04-12T01:37:42.578Z,7.15
2023-04-12T01:40:11.317Z,6.85
2023-04-12T01:42:39.753Z,6.62
2023-04-12T01:45:07.771Z,6.83
2023-04-12T01:47:36.356Z,6.81
2023-04-12T01:50:16.780Z,6.55
2023-04-12T01:52:56.318Z,6.51
2023-04-12T01:55:24.389Z,6.64
2023-04-12T01:57:53.275Z,6.69
2023-04-12T02:00:21.055Z,6.61
2023-04-12T02:02:48.982Z,6.53
2023-04-12T02:05:17.463Z,6.46
2023-04-12T02:07:46.787Z,6.45
2023-04-12T02:10:29.385Z,6.56
2023-04-12T02:13:00.722Z,6.84
2023-04-12T02:15:29.042Z,6.56
2023-04-12T02:17:58.381Z,6.87
2023-04-12T02:20:27.078Z,6.62
2023-04-12T02:22:54.849Z,7.01
2023-04-12T02:25:24.143Z,6.54
2023-04-12T02:27:51.622Z,6.40
2023-04-12T02:30:19.037Z,7.04
2023-04-12T02:32:48.109Z,6.67
2023-04-12T02:35:32.287Z,6.60
2023-04-12T02:38:00.396Z,6.94
2023-04-12T02:40:27.981Z,6.81
2023-04-12T02:42:55.594Z,6.52
2023-04-12T02:45:24.209Z,6.59
2023-04-12T02:47:52.014Z,6.36
2023-04-12T02:50:21.631Z,6.44
2023-04-12T02:52:49.934Z,6.34
2023-04-12T02:55:17.428Z,6.43
2023-04-12T02:57:45.967Z,6.36
2023-04-12T03:00:18.130Z,6.41
2023-04-12T03:02:46.036Z,6.52
2023-04-12T03:05:14.725Z,6.60
2023-04-12T03:07:42.349Z,6.28
2023-04-12T03:10:13.334Z,6.69
2023-04-12T03:12:41.539Z,7.09
2023-04-12T03:15:11.570Z,7.07
2023-04-12T03:17:39.229Z,6.78
2023-04-12T03:20:10.649Z,6.65
2023-04-12T03:22:38.887Z,6.76
2023-04-12T03:25:08.779Z,6.93
2023-04-12T03:27:37.404Z,6.70
2023-04-12T03:30:06.406Z,6.87
2023-04-12T03:32:34.997Z,6.98
2023-04-12T03:35:03.240Z,6.94
2023-04-12T03:37:30.992Z,5.94
2023-04-12T03:39:58.756Z,7.00
2023-04-12T03:42:33.623Z,6.23
2023-04-12T03:45:03.298Z,6.37
2023-04-12T03:47:31.715Z,7.43
2023-04-12T03:50:12.345Z,6.86
2023-04-12T03:52:41.017Z,7.07
2023-04-12T03:55:08.906Z,7.31
2023-04-12T03:57:36.603Z,6.64
2023-04-12T04:00:05.078Z,6.55
2023-04-12T04:02:34.833Z,6.47
2023-04-12T04:05:05.014Z,6.82
2023-04-12T04:07:32.508Z,6.59
2023-04-12T04:10:00.173Z,6.88
2023-04-12T04:12:28.270Z,6.60
2023-04-12T04:14:55.912Z,7.02
2023-04-12T04:17:24.201Z,6.71
2023-04-12T04:19:52.737Z,7.55
2023-04-12T04:22:21.759Z,7.76
2023-04-12T04:24:51.674Z,7.42
2023-04-12T04:27:20.552Z,6.98
2023-04-12T04:29:48.192Z,7.43
2023-04-12T04:32:16.049Z,6.91
2023-04-12T04:34:44.753Z,6.62
2023-04-12T04:37:13.335Z,7.39
2023-04-12T04:39:41.593Z,6.96
2023-04-12T04:42:11.075Z,5.87
2023-04-12T04:44:38.866Z,7.22
2023-04-12T04:47:08.690Z,7.09
2023-04-12T04:49:37.254Z,7.82
2023-04-12T04:52:04.864Z,7.50
2023-04-12T04:54:33.175Z,7.08
2023-04-12T04:57:01.700Z,7.54
2023-04-12T04:59:29.049Z,7.75
2023-04-12T05:01:57.368Z,7.36
2023-04-12T05:04:25.063Z,6.99
2023-04-12T05:06:53.770Z,7.07
2023-04-12T05:09:22.432Z,6.77
2023-04-12T05:11:50.790Z,6.58
2023-04-12T05:14:18.328Z,6.56
2023-04-12T05:16:46.318Z,6.69
2023-04-12T05:19:14.232Z,6.80
2023-04-12T05:21:41.682Z,6.69
2023-04-12T05:24:09.213Z,6.77
2023-04-12T05:26:37.291Z,6.79
2023-04-12T05:29:07.468Z,7.04
2023-04-12T05:31:34.846Z,7.01
2023-04-12T05:34:03.072Z,7.02
2023-04-12T05:36:31.918Z,6.42
2023-04-12T05:38:59.523Z,6.59
2023-04-12T05:41:28.431Z,7.05
2023-04-12T05:43:56.027Z,6.57
2023-04-12T05:46:24.852Z,7.48
2023-04-12T05:48:52.745Z,6.93
2023-04-12T05:51:30.620Z,6.87
2023-04-12T05:54:07.154Z,7.32
2023-04-12T05:56:34.813Z,6.66
2023-04-12T05:59:02.495Z,7.26
2023-04-12T06:01:32.361Z,7.16
2023-04-12T06:04:06.087Z,6.91
2023-04-12T06:06:34.084Z,6.96
2023-04-12T06:09:02.886Z,6.69
2023-04-12T06:11:32.149Z,6.71
2023-04-12T06:14:00.817Z,7.26
2023-04-12T06:16:29.616Z,7.00
2023-04-12T06:18:57.534Z,7.06
2023-04-12T06:21:27.031Z,7.33
2023-04-12T06:23:54.791Z,6.91
2023-04-12T06:26:22.214Z,6.83
2023-04-12T06:28:49.968Z,7.37
2023-04-12T06:31:17.761Z,7.58
2023-04-12T06:33:46.255Z,7.67
2023-04-12T06:36:16.058Z,7.65
2023-04-12T06:38:43.934Z,7.66
2023-04-12T06:41:11.752Z,7.79
2023-04-12T06:43:39.087Z,7.91
2023-04-12T06:46:08.936Z,7.89
2023-04-12T06:48:36.446Z,7.82
2023-04-12T06:51:04.148Z,7.70
2023-04-12T06:53:32.261Z,8.00
2023-04-12T06:56:04.031Z,7.96
2023-04-12T06:58:32.109Z,8.46
2023-04-12T07:01:10.281Z,8.68
2023-04-12T07:03:39.042Z,8.15
2023-04-12T07:06:17.633Z,8.39
2023-04-12T07:08:52.167Z,9.23
2023-04-12T07:11:22.421Z,8.61
2023-04-12T07:13:51.170Z,8.58
2023-04-12T07:16:18.939Z,8.36
2023-04-12T07:18:46.538Z,8.51
2023-04-12T07:21:17.762Z,8.85
2023-04-12T07:23:47.580Z,9.29
2023-04-12T07:26:15.016Z,8.94
2023-04-12T07:28:42.408Z,8.94
2023-04-12T07:31:10.105Z,8.90
2023-04-12T07:33:39.386Z,8.96
2023-04-12T07:36:07.098Z,9.60
2023-04-12T07:38:34.780Z,9.50
2023-04-12T07:41:02.187Z,9.37
2023-04-12T07:43:30.293Z,9.76
2023-04-12T07:45:58.793Z,9.67
2023-04-12T07:48:26.373Z,9.72
2023-04-12T07:50:53.943Z,9.84
2023-04-12T07:53:28.561Z,10.00
2023-04-12T07:55:56.428Z,10.35
2023-04-12T07:58:24.903Z,10.60
2023-04-12T08:00:53.831Z,10.56
2023-04-12T08:03:21.615Z,10.83
2023-04-12T08:05:53.749Z,11.85
2023-04-12T08:08:22.411Z,11.73
2023-04-12T08:10:49.987Z,13.39
2023-04-12T08:13:17.216Z,13.78
2023-04-12T08:15:44.995Z,12.98
2023-04-12T08:18:12.550Z,13.98
2023-04-12T08:20:44.173Z,13.91
2023-04-12T08:23:11.807Z,13.60
2023-04-12T08:25:39.251Z,14.33
2023-04-12T08:28:08.176Z,13.62
2023-04-12T08:30:35.895Z,13.66
2023-04-12T08:33:03.108Z,14.38
2023-04-12T08:35:30.390Z,13.92
2023-04-12T08:37:58.012Z,13.87
2023-04-12T08:40:25.603Z,13.92
2023-04-12T08:42:52.820Z,14.35
2023-04-12T08:45:20.336Z,14.11
2023-04-12T08:47:47.517Z,13.72
2023-04-12T08:50:14.916Z,12.98
2023-04-12T08:52:42.687Z,12.73
2023-04-12T08:55:10.380Z,12.39
2023-04-12T08:57:39.080Z,12.12
2023-04-12T09:00:07.574Z,12.19
2023-04-12T09:02:38.541Z,12.50
2023-04-12T09:05:06.782Z,12.85
2023-04-12T09:07:35.923Z,12.41
2023-04-12T09:10:04.795Z,12.75
2023-04-12T09:12:32.158Z,12.58
2023-04-12T09:15:08.523Z,13.11
2023-04-12T09:17:37.095Z,12.79
2023-04-12T09:20:17.256Z,12.86
2023-04-12T09:22:46.420Z,12.87
2023-04-12T09:25:14.546Z,12.86
2023-04-12T09:27:51.382Z,13.63
2023-04-12T09:30:19.431Z,13.37
2023-04-12T09:32:49.272Z,13.21
2023-04-12T09:35:16.605Z,13.65
2023-04-12T09:37:44.165Z,13.45
2023-04-12T09:40:11.779Z,13.46
2023-04-12T09:42:52.672Z,13.83
2023-04-12T09:45:21.867Z,13.53
2023-04-12T09:47:49.154Z,13.37
2023-04-12T09:50:26.529Z,13.39
2023-04-12T09:52:54.855Z,13.12
2023-04-12T09:55:23.393Z,13.89
2023-04-12T09:57:51.663Z,13.86
2023-04-12T10:00:20.262Z,14.36
2023-04-12T10:02:50.998Z,14.72
2023-04-12T10:05:19.860Z,14.17
2023-04-12T10:07:47.529Z,14.53
2023-04-12T10:10:16.047Z,14.70
2023-04-12T10:12:44.256Z,14.39
2023-04-12T10:15:17.720Z,13.69
2023-04-12T10:17:46.507Z,14.18
2023-04-12T10:20:14.601Z,14.59
2023-04-12T10:22:42.317Z,14.55
2023-04-12T10:25:19.753Z,14.74
2023-04-12T10:27:47.576Z,14.79
2023-04-12T10:30:22.527Z,14.93
2023-04-12T10:32:51.078Z,15.51
2023-04-12T10:35:18.382Z,16.07
2023-04-12T10:37:57.822Z,14.83
2023-04-12T10:40:25.644Z,14.83
2023-04-12T10:43:28.864Z,14.50
2023-04-12T10:45:56.642Z,14.53
2023-04-12T10:48:39.682Z,14.64
2023-04-12T10:51:26.755Z,14.91
2023-04-12T10:53:54.855Z,15.27
2023-04-12T10:56:32.678Z,15.28
2023-04-12T10:59:04.134Z,15.11
2023-04-12T11:01:33.236Z,14.86
2023-04-12T11:04:18.155Z,15.17
2023-04-12T11:06:53.498Z,15.15
2023-04-12T11:09:30.963Z,15.23
2023-04-12T11:11:58.957Z,15.53
2023-04-12T11:14:30.580Z,15.30
2023-04-12T11:17:06.934Z,15.44
2023-04-12T11:19:38.371Z,15.51
2023-04-12T11:22:06.665Z,15.45
2023-04-12T11:24:33.963Z,15.39
2023-04-12T11:27:01.543Z,15.46
2023-04-12T11:29:28.758Z,15.56
2023-04-12T11:31:56.330Z,15.79
2023-04-12T11:34:23.921Z,15.89
2023-04-12T11:36:54.104Z,15.41
2023-04-12T11:39:21.364Z,15.86
2023-04-12T11:41:49.002Z,15.48
2023-04-12T11:44:21.432Z,15.87
2023-04-12T11:46:49.620Z,15.99
2023-04-12T11:49:17.678Z,16.00
2023-04-12T11:51:46.286Z,15.89
2023-04-12T11:54:15.563Z,15.66
2023-04-12T11:56:43.001Z,16.04
2023-04-12T11:59:10.296Z,15.52
2023-04-12T12:01:37.943Z,15.49
2023-04-12T12:04:06.035Z,15.40
2023-04-12T12:06:33.708Z,16.02
2023-04-12T12:09:00.986Z,16.22
2023-04-12T12:11:29.281Z,16.35
2023-04-12T12:13:56.791Z,16.15
2023-04-12T12:16:25.370Z,16.39
2023-04-12T12:18:53.196Z,16.21
2023-04-12T12:21:20.760Z,15.78
2023-04-12T12:23:48.856Z,16.01
2023-04-12T12:26:23.538Z,16.15
2023-04-12T12:28:57.381Z,16.70
2023-04-12T12:31:31.366Z,16.77
2023-04-12T12:33:59.343Z,16.85
2023-04-12T12:36:33.836Z,16.41
2023-04-12T12:39:07.067Z,16.51
2023-04-12T12:41:34.703Z,16.78
2023-04-12T12:44:02.310Z,16.87
2023-04-12T12:46:44.701Z,16.50
2023-04-12T12:49:18.199Z,16.45
2023-04-12T12:51:45.507Z,16.12
2023-04-12T12:54:12.741Z,17.09
2023-04-12T12:56:40.297Z,16.94
2023-04-12T12:59:07.466Z,17.09
2023-04-12T13:01:34.806Z,16.34
2023-04-12T13:04:02.367Z,17.21
2023-04-12T13:06:29.669Z,17.24
2023-04-12T13:08:57.191Z,16.41
2023-04-12T13:11:24.930Z,16.34
2023-04-12T13:13:52.510Z,16.28
2023-04-12T13:16:19.701Z,16.26
2023-04-12T13:18:47.221Z,15.79
2023-04-12T13:21:14.367Z,16.47
2023-04-12T13:23:41.590Z,16.57
2023-04-12T13:26:09.068Z,16.37
2023-04-12T13:28:36.319Z,15.73
2023-04-12T13:31:03.901Z,16.31
2023-04-12T13:33:31.419Z,16.68
2023-04-12T13:35:58.583Z,17.03
2023-04-12T13:38:25.818Z,17.48
2023-04-12T13:40:53.514Z,16.99
2023-04-12T13:43:20.692Z,16.91
2023-04-12T13:45:48.290Z,17.22
2023-04-12T13:48:16.205Z,17.27
2023-04-12T13:50:43.454Z,17.34
2023-04-12T13:53:10.816Z,17.07
2023-04-12T13:55:38.237Z,16.54
2023-04-12T13:58:05.417Z,16.62
2023-04-12T14:00:32.574Z,16.73
2023-04-12T14:03:00.404Z,16.65
2023-04-12T14:05:27.750Z,16.95
2023-04-12T14:07:55.711Z,17.31
2023-04-12T14:10:23.142Z,17.49
2023-04-12T14:12:50.468Z,16.79
2023-04-12T14:15:17.789Z,16.80
2023-04-12T14:17:45.385Z,17.26
2023-04-12T14:20:13.423Z,17.85
2023-04-12T14:22:40.874Z,17.97
2023-04-12T14:25:09.329Z,17.42
2023-04-12T14:27:36.529Z,17.95
2023-04-12T14:30:04.874Z,17.74
2023-04-12T14:32:32.439Z,17.16
2023-04-12T14:34:59.608Z,16.40
2023-04-12T14:37:27.451Z,17.05
2023-04-12T14:39:54.980Z,16.80
2023-04-12T14:42:22.564Z,16.44
2023-04-12T14:44:49.793Z,16.02
2023-04-12T14:47:17.518Z,16.29
2023-04-12T14:49:44.810Z,16.03
2023-04-12T14:52:13.014Z,16.44
2023-04-12T14:54:40.480Z,17.46
2023-04-12T14:57:07.815Z,17.45
2023-04-12T14:59:34.991Z,16.94
2023-04-12T15:02:02.594Z,16.80
2023-04-12T15:04:30.319Z,16.46
2023-04-12T15:06:57.648Z,16.33
2023-04-12T15:09:26.106Z,16.40
2023-04-12T15:12:01.133Z,17.52
2023-04-12T15:14:28.885Z,17.30
2023-04-12T15:16:56.032Z,16.55
2023-04-12T15:19:24.018Z,16.65
2023-04-12T15:21:51.843Z,16.36
2023-04-12T15:24:19.332Z,16.57
2023-04-12T15:26:48.413Z,16.16
2023-04-12T15:29:16.736Z,16.44
2023-04-12T15:31:44.141Z,16.80
2023-04-12T15:34:11.675Z,16.31
2023-04-12T15:36:41.137Z,15.71
2023-04-12T15:39:08.669Z,16.66
2023-04-12T15:41:37.895Z,15.97
2023-04-12T15:44:06.117Z,16.01
2023-04-12T15:46:33.510Z,16.50
2023-04-12T15:49:01.199Z,15.78
2023-04-12T15:51:28.948Z,15.80
2023-04-12T15:53:56.755Z,15.94
2023-04-12T15:56:25.693Z,15.68
2023-04-12T15:58:53.706Z,15.75
2023-04-12T16:01:20.948Z,15.97
2023-04-12T16:03:49.879Z,16.05
2023-04-12T16:06:21.054Z,15.89
2023-04-12T16:08:52.592Z,16.10
2023-04-12T16:11:21.092Z,17.34
2023-04-12T16:13:49.749Z,16.69
2023-04-12T16:16:19.954Z,15.88
2023-04-12T16:18:47.332Z,16.69
2023-04-12T16:21:17.045Z,16.98
2023-04-12T16:23:44.422Z,16.17
2023-04-12T16:26:12.401Z,15.70
2023-04-12T16:28:42.985Z,15.69
2023-04-12T16:31:10.339Z,14.90
2023-04-12T16:33:38.176Z,15.06
2023-04-12T16:36:06.326Z,15.10
2023-04-12T16:38:33.850Z,15.23
2023-04-12T16:41:01.099Z,15.34
2023-04-12T16:43:28.543Z,15.26
2023-04-12T16:45:56.811Z,14.79
2023-04-12T16:48:24.109Z,14.89
2023-04-12T16:50:51.658Z,14.92
2023-04-12T16:53:19.128Z,14.67
2023-04-12T16:55:49.277Z,14.94
2023-04-12T16:58:17.417Z,14.78
2023-04-12T17:00:45.016Z,15.20
2023-04-12T17:03:13.794Z,14.54
2023-04-12T17:05:43.258Z,15.02
2023-04-12T17:08:10.573Z,15.29
2023-04-12T17:10:37.847Z,15.85
2023-04-12T17:13:05.626Z,15.69
2023-04-12T17:15:33.216Z,15.14
2023-04-12T17:18:02.903Z,14.90
2023-04-12T17:20:31.891Z,14.55
2023-04-12T17:23:00.550Z,14.66
2023-04-12T17:25:31.813Z,15.57
2023-04-12T17:28:01.694Z,15.59
2023-04-12T17:30:29.576Z,15.63
2023-04-12T17:32:59.387Z,15.28
2023-04-12T17:35:27.603Z,15.09
2023-04-12T17:37:55.785Z,14.42
2023-04-12T17:40:24.291Z,13.41
2023-04-12T17:42:51.938Z,13.22
2023-04-12T17:45:22.039Z,13.00
2023-04-12T17:47:50.344Z,12.76
2023-04-12T17:50:18.296Z,12.47
2023-04-12T17:52:47.416Z,12.23
2023-04-12T17:55:19.719Z,12.35
2023-04-12T17:57:48.170Z,12.36
2023-04-12T18:00:19.275Z,12.10
2023-04-12T18:02:47.294Z,12.03
2023-04-12T18:05:16.848Z,11.84
2023-04-12T18:07:46.127Z,11.61
2023-04-12T18:10:16.149Z,11.55
2023-04-12T18:12:45.510Z,11.60
2023-04-12T18:15:13.755Z,11.41
2023-04-12T18:17:42.163Z,11.10
2023-04-12T18:20:13.253Z,11.10
2023-04-12T18:22:41.494Z,11.34
2023-04-12T18:25:10.337Z,11.86
2023-04-12T18:27:39.987Z,11.57
2023-04-12T18:30:08.630Z,12.39
2023-04-12T18:32:36.862Z,12.28
2023-04-12T18:35:06.151Z,12.37
2023-04-12T18:37:34.993Z,12.30
2023-04-12T18:40:02.592Z,11.64
2023-04-12T18:42:30.757Z,11.59
2023-04-12T18:44:58.834Z,11.69
2023-04-12T18:47:27.988Z,11.09
2023-04-12T18:49:57.032Z,11.02
2023-04-12T18:52:25.574Z,10.63
2023-04-12T18:54:54.227Z,10.39
2023-04-12T18:57:28.124Z,10.48
2023-04-12T18:59:56.004Z,10.87
2023-04-12T19:02:24.530Z,10.83
2023-04-12T19:04:53.257Z,10.74
2023-04-12T19:07:22.026Z,10.49
2023-04-12T19:09:51.588Z,10.70
2023-04-12T19:12:20.427Z,10.40
2023-04-12T19:14:49.153Z,10.64
2023-04-12T19:17:17.708Z,10.51
2023-04-12T19:19:46.408Z,10.52
2023-04-12T19:22:14.835Z,10.33
2023-04-12T19:24:43.490Z,10.01
2023-04-12T19:27:12.095Z,9.74
2023-04-12T19:29:40.212Z,9.71
2023-04-12T19:32:12.600Z,9.67
2023-04-12T19:34:42.172Z,9.61
2023-04-12T19:37:11.890Z,9.40
2023-04-12T19:39:40.864Z,9.31
2023-04-12T19:42:08.800Z,9.23
2023-04-12T19:44:38.902Z,9.34
2023-04-12T19:47:08.229Z,9.49
2023-04-12T19:49:43.820Z,9.60
2023-04-12T19:52:12.046Z,9.57
2023-04-12T19:54:41.060Z,9.95
2023-04-12T19:57:11.009Z,9.81
2023-04-12T19:59:41.691Z,9.41
2023-04-12T20:02:11.775Z,9.05
2023-04-12T20:04:40.912Z,9.06
2023-04-12T20:07:08.120Z,9.34
2023-04-12T20:09:36.106Z,9.34
2023-04-12T20:12:04.583Z,9.01
2023-04-12T20:14:35.971Z,8.87
2023-04-12T20:17:06.343Z,8.98
2023-04-12T20:19:34.709Z,9.18
2023-04-12T20:22:02.348Z,9.02
2023-04-12T20:24:31.188Z,9.21
2023-04-12T20:27:00.789Z,9.10
2023-04-12T20:29:32.979Z,9.19
2023-04-12T20:32:03.011Z,9.07
2023-04-12T20:34:30.901Z,8.98
2023-04-12T20:37:03.172Z,8.72
2023-04-12T20:39:31.741Z,8.58
2023-04-12T20:42:01.330Z,8.75
2023-04-12T20:44:29.008Z,8.75
2023-04-12T20:46:56.994Z,8.49
2023-04-12T20:49:28.232Z,8.17
2023-04-12T20:51:57.294Z,8.61
2023-04-12T20:54:32.616Z,9.47
2023-04-12T20:57:04.147Z,9.68
2023-04-12T20:59:33.114Z,8.63
2023-04-12T21:02:00.786Z,8.97
2023-04-12T21:04:29.254Z,8.49
2023-04-12T21:06:57.487Z,8.23
2023-04-12T21:09:24.876Z,8.05
2023-04-12T21:11:52.733Z,7.99
2023-04-12T21:14:20.594Z,8.28
2023-04-12T21:16:48.921Z,8.33
2023-04-12T21:19:16.304Z,8.91
2023-04-12T21:21:44.943Z,9.57
2023-04-12T21:24:12.185Z,9.31
2023-04-12T21:26:39.439Z,9.04
2023-04-12T21:29:06.932Z,9.01
2023-04-12T21:31:34.134Z,9.41
2023-04-12T21:34:01.956Z,9.86
2023-04-12T21:36:30.369Z,10.04
2023-04-12T21:38:58.509Z,9.95
2023-04-12T21:41:30.703Z,10.18
2023-04-12T21:43:58.132Z,9.73
2023-04-12T21:46:27.769Z,10.08
2023-04-12T21:48:55.067Z,9.71
2023-04-12T21:51:24.588Z,9.03
2023-04-12T21:53:51.800Z,8.33
2023-04-12T21:56:18.984Z,7.78
2023-04-12T21:58:46.444Z,8.13
2023-04-12T22:01:14.216Z,8.27
2023-04-12T22:03:43.128Z,8.47
2023-04-12T22:06:11.755Z,9.32
2023-04-12T22:08:42.730Z,9.71
2023-04-12T22:11:11.827Z,9.90
2023-04-12T22:13:41.774Z,7.93
2023-04-12T22:16:13.130Z,7.81
2023-04-12T22:18:41.148Z,7.71
2023-04-12T22:21:08.397Z,7.58
2023-04-12T22:23:38.871Z,7.66
2023-04-12T22:26:07.104Z,7.77
2023-04-12T22:28:36.241Z,7.86
2023-04-12T22:31:06.535Z,7.79
2023-04-12T22:33:34.357Z,8.02
2023-04-12T22:36:02.262Z,8.77
2023-04-12T22:38:29.408Z,9.35
2023-04-12T22:41:02.059Z,9.64
2023-04-12T22:43:34.053Z,9.55
2023-04-12T22:46:05.781Z,9.62
2023-04-12T22:48:32.933Z,10.06
2023-04-12T22:51:01.053Z,10.07
2023-04-12T22:53:28.792Z,10.22
2023-04-12T22:55:56.536Z,10.38
2023-04-12T22:58:23.955Z,10.31
2023-04-12T23:00:51.383Z,9.97
2023-04-12T23:03:19.990Z,8.89
2023-04-12T23:05:47.326Z,8.96
2023-04-12T23:08:14.796Z,8.15
2023-04-12T23:10:45.419Z,8.14
2023-04-12T23:13:12.585Z,7.83
2023-04-12T23:15:41.207Z,8.07
2023-04-12T23:18:08.628Z,8.11
2023-04-12T23:20:36.124Z,7.76
2023-04-12T23:23:03.947Z,7.59
2023-04-12T23:25:39.318Z,7.38
2023-04-12T23:28:14.630Z,7.28
2023-04-12T23:30:42.834Z,7.57
2023-04-12T23:33:12.070Z,8.53
2023-04-12T23:35:41.195Z,8.84
2023-04-12T23:38:08.764Z,9.53
2023-04-12T23:40:36.231Z,9.96
2023-04-12T23:43:03.537Z,10.10
2023-04-12T23:45:32.240Z,10.30
2023-04-12T23:47:59.904Z,10.36
2023-04-12T23:50:27.133Z,9.74
2023-04-12T23:52:54.344Z,9.16
2023-04-12T23:55:21.867Z,8.55
2023-04-12T23:57:49.183Z,8.60
